Time;durP1;ratioP1;P1;durP2;ratioP2;P2;SDS_P1;SDS_P2;PMS_P1;PMS_P2;Temp;Humidity;BMP_temperature;BMP_pressure;BME280_temperature;BME280_humidity;BME280_pressure;Samples;Min_cycle;Max_cycle;Signal;HPM_P1;HPM_P2
2021/12/21 00:00:44;;;;;;;15.55;7.20;;;-4.30;99.90;;;;;;5084848;28;20108;-69
2021/12/21 00:03:10;;;;;;;24.95;7.82;;;-4.40;99.90;;;;;;5074578;28;20056;-69
2021/12/21 00:05:37;;;;;;;16.98;8.30;;;-4.30;99.90;;;;;;5074528;28;20059;-69
2021/12/21 00:08:04;;;;;;;20.38;9.27;;;-4.20;99.90;;;;;;5074661;28;20029;-69
2021/12/21 00:10:32;;;;;;;16.00;7.03;;;-4.20;99.90;;;;;;5074408;28;20020;-69
2021/12/21 00:18:03;;;;;;;19.65;8.88;;;-4.20;99.90;;;;;;5074569;28;20028;-69
2021/12/21 00:20:44;;;;;;;18.83;8.50;;;-4.20;99.90;;;;;;5074517;28;20095;-69
2021/12/21 00:23:31;;;;;;;16.13;8.38;;;-4.30;99.90;;;;;;5074191;28;20020;-69
2021/12/21 00:25:59;;;;;;;24.92;9.80;;;-4.20;99.90;;;;;;5074244;28;20029;-69
2021/12/21 00:28:25;;;;;;;22.05;9.55;;;-4.10;99.90;;;;;;5078043;28;20081;-69
2021/12/21 00:30:51;;;;;;;26.75;9.30;;;-4.00;99.90;;;;;;5093059;28;20031;-69
2021/12/21 00:33:17;;;;;;;29.00;11.02;;;-4.00;99.90;;;;;;5075287;28;20472;-69
2021/12/21 00:35:43;;;;;;;25.67;10.35;;;-3.90;99.90;;;;;;5073998;28;20476;-69
2021/12/21 00:38:09;;;;;;;22.05;8.93;;;-3.90;99.90;;;;;;5094160;28;20026;-69
2021/12/21 00:40:34;;;;;;;19.38;8.52;;;-3.90;99.90;;;;;;5094029;28;20028;-69
2021/12/21 00:43:00;;;;;;;21.17;8.20;;;-4.00;99.90;;;;;;5083518;28;20081;-69
2021/12/21 00:45:26;;;;;;;15.90;7.57;;;-4.00;99.90;;;;;;5073662;28;20024;-69
2021/12/21 00:47:51;;;;;;;21.55;8.45;;;-4.00;99.90;;;;;;5073877;28;20441;-69
2021/12/21 00:50:19;;;;;;;25.50;10.88;;;-4.10;99.90;;;;;;5073648;28;20032;-70
2021/12/21 00:52:47;;;;;;;20.58;8.52;;;-4.00;99.90;;;;;;5073621;28;20032;-69
2021/12/21 00:55:13;;;;;;;25.67;10.38;;;-3.90;99.90;;;;;;5073399;28;20064;-69
2021/12/21 00:57:39;;;;;;;25.25;11.05;;;-3.90;99.90;;;;;;5073519;28;20540;-69
2021/12/21 01:00:06;;;;;;;26.13;9.95;;;-3.80;99.90;;;;;;5073537;28;20104;-69
2021/12/21 01:02:33;;;;;;;17.30;8.63;;;-3.70;99.90;;;;;;5073768;28;20445;-70
2021/12/21 01:04:59;;;;;;;25.90;9.35;;;-3.70;99.90;;;;;;5073604;28;20024;-69
2021/12/21 01:07:35;;;;;;;24.30;8.63;;;-3.80;99.90;;;;;;5073356;28;20030;-69
2021/12/21 01:10:50;;;;;;;21.77;8.90;;;-3.80;99.90;;;;;;5073413;28;20078;-69
2021/12/21 01:18:23;;;;;;;18.23;8.98;;;-4.00;99.90;;;;;;5073867;28;20103;-69
2021/12/21 01:31:03;;;;;;;17.92;7.70;;;-4.20;99.90;;;;;;5063756;28;20075;-69
2021/12/21 01:36:03;;;;;;;18.15;8.45;;;-4.20;99.90;;;;;;5090094;28;20050;-69
2021/12/21 01:38:38;;;;;;;25.92;8.57;;;-4.20;99.90;;;;;;5081283;28;20025;-70
2021/12/21 01:43:49;;;;;;;17.90;7.65;;;-4.30;99.90;;;;;;5090870;28;20027;-69
2021/12/21 01:51:43;;;;;;;15.93;7.65;;;-4.50;99.90;;;;;;5087684;28;20067;-69
2021/12/21 01:54:09;;;;;;;15.63;6.80;;;-4.50;99.90;;;;;;5085174;28;20052;-69
2021/12/21 01:56:34;;;;;;;19.73;7.45;;;-4.60;99.90;;;;;;5078716;28;20026;-69
2021/12/21 01:59:00;;;;;;;28.25;8.38;;;-4.60;99.90;;;;;;5092130;28;20024;-69
2021/12/21 02:01:27;;;;;;;18.80;7.40;;;-4.60;99.90;;;;;;5078779;28;20023;-69
2021/12/21 02:03:53;;;;;;;18.70;8.30;;;-4.70;99.90;;;;;;5092870;28;20028;-69
2021/12/21 02:06:27;;;;;;;18.58;7.88;;;-4.70;99.90;;;;;;5093088;28;20468;-69
2021/12/21 02:08:52;;;;;;;14.90;7.05;;;-4.70;99.90;;;;;;5093277;28;20029;-69
2021/12/21 02:11:19;;;;;;;15.70;7.22;;;-4.70;99.90;;;;;;5087365;28;20150;-70
2021/12/21 02:13:49;;;;;;;19.40;7.90;;;-4.70;99.90;;;;;;5085612;28;20020;-69
2021/12/21 02:16:25;;;;;;;15.60;8.57;;;-4.80;99.90;;;;;;5085890;28;20021;-69
2021/12/21 02:19:09;;;;;;;14.55;7.78;;;-4.70;99.90;;;;;;5093496;28;20414;-69
2021/12/21 02:21:42;;;;;;;17.35;7.78;;;-4.80;99.90;;;;;;5073049;28;20025;-69
2021/12/21 02:24:14;;;;;;;17.25;8.25;;;-4.80;99.90;;;;;;5093095;28;20035;-70
2021/12/21 02:26:48;;;;;;;22.85;9.77;;;-4.80;99.90;;;;;;5083645;28;20082;-69
2021/12/21 02:29:34;;;;;;;18.98;8.13;;;-4.80;99.90;;;;;;5074727;28;20502;-69
2021/12/21 02:32:00;;;;;;;17.10;8.45;;;-4.70;99.90;;;;;;5083840;28;20107;-69
2021/12/21 02:34:26;;;;;;;17.92;7.63;;;-4.70;99.90;;;;;;5072430;28;20509;-69
2021/12/21 02:36:54;;;;;;;16.83;8.45;;;-4.70;99.90;;;;;;5075813;28;20032;-69
2021/12/21 02:39:22;;;;;;;15.43;8.30;;;-4.70;99.90;;;;;;5082944;28;20105;-69
2021/12/21 02:41:48;;;;;;;22.55;8.15;;;-4.70;99.90;;;;;;5094498;28;20067;-69
2021/12/21 02:44:15;;;;;;;20.13;8.48;;;-4.70;99.90;;;;;;5096309;28;20048;-69
2021/12/21 02:46:42;;;;;;;14.85;8.05;;;-4.80;99.90;;;;;;5080151;28;20056;-69
2021/12/21 02:49:09;;;;;;;20.38;7.88;;;-4.80;99.90;;;;;;5086804;28;20054;-69
2021/12/21 02:51:41;;;;;;;24.90;9.48;;;-4.80;99.90;;;;;;5089974;28;20388;-69
2021/12/21 02:54:14;;;;;;;21.15;8.35;;;-4.80;99.90;;;;;;5075918;28;20444;-69
2021/12/21 02:56:40;;;;;;;;;;;-4.80;99.90;;;;;;5076924;28;20041;-69
2021/12/21 02:59:05;;;;;;;17.98;7.70;;;-4.80;99.90;;;;;;5076109;28;19911;-69
2021/12/21 03:01:31;;;;;;;18.15;8.77;;;-4.80;99.90;;;;;;5076084;28;20468;-70
2021/12/21 03:03:57;;;;;;;17.98;7.85;;;-4.80;99.90;;;;;;5089555;28;20024;-69
2021/12/21 03:09:10;;;;;;;13.80;7.07;;;-4.80;99.90;;;;;;5096555;28;20028;-69
2021/12/21 03:11:48;;;;;;;16.83;8.25;;;-4.80;99.90;;;;;;5095880;28;20024;-69
2021/12/21 03:14:15;;;;;;;19.70;9.30;;;-4.80;99.90;;;;;;5096031;28;20012;-69
2021/12/21 03:16:41;;;;;;;23.02;9.70;;;-4.80;99.90;;;;;;5095724;28;20430;-70
2021/12/21 03:19:08;;;;;;;20.75;9.43;;;-4.80;99.90;;;;;;5095726;28;20053;-70
2021/12/21 03:21:37;;;;;;;19.33;9.20;;;-4.70;99.90;;;;;;5095688;28;20456;-70
2021/12/21 03:24:04;;;;;;;19.30;9.45;;;-4.70;99.90;;;;;;5077427;28;20060;-69
2021/12/21 03:26:30;;;;;;;17.90;9.70;;;-4.60;99.90;;;;;;5095982;28;20025;-69
2021/12/21 03:28:57;;;;;;;17.65;8.90;;;-4.50;99.90;;;;;;5096087;28;20387;-69
2021/12/21 03:31:23;;;;;;;26.20;8.38;;;-4.50;99.90;;;;;;5095452;28;20040;-69
2021/12/21 03:33:49;;;;;;;26.90;9.93;;;-4.60;99.90;;;;;;5095440;28;20028;-69
2021/12/21 03:36:18;;;;;;;17.23;8.35;;;-4.70;99.90;;;;;;5095861;28;20020;-69
2021/12/21 03:38:52;;;;;;;29.35;10.13;;;-4.70;99.90;;;;;;5095293;28;20034;-69
2021/12/21 03:41:18;;;;;;;;;;;-4.70;99.90;;;;;;5096031;28;20028;-69
2021/12/21 03:43:44;;;;;;;15.60;8.68;;;-4.70;99.90;;;;;;5095225;28;19904;-69
2021/12/21 03:46:13;;;;;;;24.60;9.05;;;-4.70;99.90;;;;;;5095049;28;20028;-69
2021/12/21 03:48:42;;;;;;;20.05;9.73;;;-4.70;99.90;;;;;;5094475;28;20103;-69
2021/12/21 03:51:09;;;;;;;25.27;9.77;;;-4.70;99.90;;;;;;5095955;28;20089;-69
2021/12/21 03:53:35;;;;;;;17.35;9.57;;;-4.70;99.90;;;;;;5095058;28;20372;-69
2021/12/21 03:58:29;;;;;;;17.55;9.65;;;-4.70;99.90;;;;;;5095246;28;20020;-69
2021/12/21 04:00:55;;;;;;;25.77;9.13;;;-4.80;99.90;;;;;;5094885;28;20051;-70
2021/12/21 04:03:20;;;;;;;25.38;10.05;;;-4.90;99.90;;;;;;5094843;28;20024;-70
2021/12/21 04:05:46;;;;;;;24.02;10.93;;;-4.90;99.90;;;;;;5095011;28;20028;-70
2021/12/21 04:08:11;;;;;;;21.02;9.45;;;-4.80;99.90;;;;;;5094681;28;20150;-70
2021/12/21 04:10:37;;;;;;;30.85;10.25;;;-4.80;99.90;;;;;;5076503;28;20016;-70
2021/12/21 04:13:02;;;;;;;15.43;7.80;;;-4.70;99.90;;;;;;5094638;28;20016;-70
2021/12/21 04:15:31;;;;;;;17.50;8.23;;;-4.80;99.90;;;;;;5095079;28;20024;-69
2021/12/21 04:17:57;;;;;;;13.75;7.85;;;-4.80;99.90;;;;;;5094874;28;20434;-69
2021/12/21 04:20:23;;;;;;;14.38;8.82;;;-4.80;99.90;;;;;;5094515;28;20028;-69
2021/12/21 04:22:49;;;;;;;12.68;7.95;;;-4.80;99.90;;;;;;5094469;28;20024;-69
2021/12/21 04:25:15;;;;;;;17.90;8.40;;;-4.70;99.90;;;;;;5091113;28;20020;-69
2021/12/21 04:27:40;;;;;;;17.67;8.95;;;-4.80;99.90;;;;;;5085096;28;20107;-69
2021/12/21 04:30:06;;;;;;;26.27;8.63;;;-4.80;99.90;;;;;;5074310;28;20020;-69
2021/12/21 04:32:32;;;;;;;17.42;8.95;;;-4.90;99.90;;;;;;5073982;28;20369;-70
2021/12/21 04:34:57;;;;;;;18.45;8.73;;;-4.90;99.90;;;;;;5073816;28;20024;-69
2021/12/21 04:37:24;;;;;;;18.23;8.70;;;-5.00;99.90;;;;;;5091585;28;20076;-69
2021/12/21 04:39:59;;;;;;;23.27;8.60;;;-5.00;99.90;;;;;;5094470;28;20024;-69
2021/12/21 04:42:25;;;;;;;23.48;9.95;;;-5.10;99.90;;;;;;5094444;28;20016;-69
2021/12/21 04:44:50;;;;;;;18.30;8.38;;;-5.10;99.90;;;;;;5094006;28;20518;-69
2021/12/21 04:47:16;;;;;;;19.67;8.27;;;-5.20;99.90;;;;;;5093926;28;20024;-69
2021/12/21 04:49:41;;;;;;;17.67;8.77;;;-5.20;99.90;;;;;;5083027;28;20036;-69
2021/12/21 04:52:07;;;;;;;21.08;8.88;;;-5.20;99.90;;;;;;5073703;28;20020;-69
2021/12/21 04:54:33;;;;;;;17.83;10.07;;;-5.20;99.90;;;;;;5073412;28;20039;-69
2021/12/21 04:56:58;;;;;;;19.10;9.50;;;-5.20;99.90;;;;;;5073915;28;20035;-69
2021/12/21 04:59:24;;;;;;;31.58;10.07;;;-5.10;99.90;;;;;;5072823;28;20028;-69
2021/12/21 05:01:52;;;;;;;19.98;9.52;;;-5.10;99.90;;;;;;5074045;28;20038;-69
2021/12/21 05:04:18;;;;;;;23.60;8.32;;;-5.00;99.90;;;;;;5073414;28;20021;-69
2021/12/21 05:06:43;;;;;;;18.60;9.52;;;-5.00;99.90;;;;;;5073375;28;20403;-69
2021/12/21 05:09:13;;;;;;;24.63;9.18;;;-5.00;99.90;;;;;;5073433;28;20435;-69
2021/12/21 05:11:42;;;;;;;24.00;9.15;;;-5.00;99.90;;;;;;5073834;28;20013;-69
2021/12/21 05:14:09;;;;;;;17.00;9.02;;;-4.90;99.90;;;;;;5073594;28;20024;-70
2021/12/21 05:16:35;;;;;;;17.17;9.65;;;-4.90;99.90;;;;;;5073567;28;20388;-69
2021/12/21 05:19:01;;;;;;;16.05;8.48;;;-4.90;99.90;;;;;;5073567;28;20039;-69
2021/12/21 05:21:26;;;;;;;20.05;9.60;;;-5.00;99.90;;;;;;5073574;28;20021;-69
2021/12/21 05:23:52;;;;;;;15.50;8.32;;;-5.00;99.90;;;;;;5073280;28;20036;-69
2021/12/21 05:26:17;;;;;;;29.90;10.27;;;-5.10;99.90;;;;;;5073022;28;20110;-69
2021/12/21 05:28:43;;;;;;;21.42;9.35;;;-5.10;99.90;;;;;;5073442;28;20024;-69
2021/12/21 05:31:08;;;;;;;18.08;9.65;;;-5.00;99.90;;;;;;5073159;28;20464;-69
2021/12/21 05:33:34;;;;;;;22.73;9.30;;;-4.90;99.90;;;;;;5073161;28;20025;-69
2021/12/21 05:35:59;;;;;;;17.55;9.68;;;-4.80;99.90;;;;;;5073163;28;20358;-69
2021/12/21 05:38:31;;;;;;;23.02;10.35;;;-4.80;99.90;;;;;;5073089;28;20103;-70
2021/12/21 05:41:00;;;;;;;14.68;7.55;;;-4.90;99.90;;;;;;5071871;28;20099;-70
2021/12/21 05:43:26;;;;;;;13.73;8.40;;;-4.90;99.90;;;;;;5077322;28;20467;-69
2021/12/21 05:45:52;;;;;;;16.33;9.25;;;-5.00;99.90;;;;;;5093199;28;20115;-70
2021/12/21 05:48:17;;;;;;;16.05;7.78;;;-5.00;99.90;;;;;;5093120;28;20024;-69
2021/12/21 05:50:43;;;;;;;16.90;7.97;;;-5.10;99.90;;;;;;5093465;28;20028;-70
2021/12/21 05:53:08;;;;;;;15.40;7.60;;;-5.10;99.90;;;;;;5093278;28;20020;-69
2021/12/21 05:55:34;;;;;;;17.90;9.05;;;-5.20;99.90;;;;;;5132215;22;20036;-72
2021/12/21 05:58:00;;;;;;;15.88;8.50;;;-5.10;99.90;;;;;;5093256;28;20032;-71
2021/12/21 06:00:31;;;;;;;17.00;8.50;;;-5.10;99.90;;;;;;5093291;28;20027;-72
2021/12/21 06:02:57;;;;;;;26.20;9.18;;;-5.10;99.90;;;;;;5094794;28;20030;-72
2021/12/21 06:05:23;;;;;;;17.00;8.60;;;-5.10;99.90;;;;;;5113329;28;20395;-72
2021/12/21 06:07:52;;;;;;;22.63;8.70;;;-5.10;99.90;;;;;;5109136;28;20032;-72
2021/12/21 06:10:25;;;;;;;20.75;10.35;;;-5.10;99.90;;;;;;5081873;28;20044;-72
2021/12/21 06:26:04;;;;;;;14.80;8.35;;;-4.90;99.90;;;;;;5111908;28;20047;-72
2021/12/21 06:28:31;;;;;;;15.88;9.18;;;-4.90;99.90;;;;;;5062916;28;20040;-72
2021/12/21 06:30:57;;;;;;;17.48;8.60;;;-4.90;99.90;;;;;;5058479;28;20025;-71
2021/12/21 06:33:22;;;;;;;18.67;8.15;;;-4.90;99.90;;;;;;5076592;28;20016;-72
2021/12/21 06:35:49;;;;;;;22.58;8.70;;;-4.90;99.90;;;;;;5061197;28;20066;-72
2021/12/21 06:38:14;;;;;;;21.38;10.55;;;-5.00;99.90;;;;;;5078362;28;20024;-71
2021/12/21 06:40:40;;;;;;;22.30;10.55;;;-5.00;99.90;;;;;;5088011;28;20041;-71
2021/12/21 06:43:11;;;;;;;23.67;9.30;;;-4.90;99.90;;;;;;5076354;28;20090;-71
2021/12/21 06:53:40;;;;;;;31.17;11.13;;;-4.70;99.90;;;;;;5096565;28;20051;-71
2021/12/21 06:56:07;;;;;;;26.30;11.98;;;-4.70;99.90;;;;;;5096158;28;20418;-71
2021/12/21 06:58:33;;;;;;;26.75;12.10;;;-4.70;99.90;;;;;;5096378;28;20028;-72
2021/12/21 07:01:00;;;;;;;29.52;10.13;;;-4.70;99.90;;;;;;5096553;28;20077;-72
2021/12/21 07:03:26;;;;;;;36.15;13.02;;;-4.70;99.90;;;;;;5095964;28;20036;-72
2021/12/21 07:05:52;;;;;;;17.33;9.82;;;-4.70;99.90;;;;;;5094196;28;20094;-72
2021/12/21 07:08:27;;;;;;;22.92;11.40;;;-4.70;99.90;;;;;;5095559;28;20028;-72
2021/12/21 07:19:07;;;;;;;29.63;12.05;;;-4.60;99.90;;;;;;5095832;28;20031;-71
2021/12/21 07:21:33;;;;;;;25.65;11.88;;;-4.70;99.90;;;;;;5095084;28;20012;-72
2021/12/21 07:23:58;;;;;;;21.38;11.02;;;-4.70;99.90;;;;;;5093030;28;20028;-72
2021/12/21 07:26:26;;;;;;;22.20;11.50;;;-4.70;99.90;;;;;;5095977;28;20016;-72
2021/12/21 07:28:52;;;;;;;19.92;11.20;;;-4.70;99.90;;;;;;5084929;28;20027;-71
2021/12/21 07:31:17;;;;;;;30.15;11.02;;;-4.70;99.90;;;;;;5095502;28;20028;-71
2021/12/21 07:33:43;;;;;;;19.75;11.38;;;-4.70;99.90;;;;;;5095724;28;20024;-71
2021/12/21 07:36:08;;;;;;;15.55;10.50;;;-4.70;99.90;;;;;;5095345;28;20032;-71
2021/12/21 07:38:34;;;;;;;22.50;10.38;;;-4.80;99.90;;;;;;5076828;28;20028;-72
2021/12/21 07:41:00;;;;;;;30.10;18.05;;;-4.80;99.90;;;;;;5076783;28;20073;-72
2021/12/21 07:43:26;;;;;;;41.03;19.83;;;-4.80;99.90;;;;;;5077116;28;20055;-71
2021/12/21 07:45:52;;;;;;;65.40;28.02;;;-4.70;99.90;;;;;;5077051;28;20061;-71
2021/12/21 07:48:20;;;;;;;62.38;32.95;;;-4.70;99.90;;;;;;5095077;28;20544;-71
2021/12/21 07:50:46;;;;;;;57.45;29.42;;;-4.70;99.90;;;;;;5095088;28;20058;-71
2021/12/21 07:53:14;;;;;;;56.10;24.10;;;-4.70;99.90;;;;;;5095357;28;20051;-71
2021/12/21 07:55:40;;;;;;;31.20;14.60;;;-4.80;99.90;;;;;;5089352;28;20021;-72
2021/12/21 07:58:05;;;;;;;30.02;12.43;;;-4.80;99.90;;;;;;5075032;28;20032;-72
2021/12/21 08:00:31;;;;;;;28.25;13.13;;;-4.70;99.90;;;;;;5074646;28;20060;-71
2021/12/21 08:02:57;;;;;;;28.23;13.25;;;-4.70;99.90;;;;;;5074930;28;20039;-71
2021/12/21 08:05:24;;;;;;;24.20;13.07;;;-4.60;99.90;;;;;;5056648;28;20032;-71
2021/12/21 08:07:55;;;;;;;23.90;11.57;;;-4.70;99.90;;;;;;5074490;28;20424;-71
2021/12/21 08:10:30;;;;;;;33.92;10.93;;;-4.60;99.90;;;;;;5056627;28;20025;-72
2021/12/21 08:12:56;;;;;;;23.00;11.25;;;-4.70;99.90;;;;;;5075573;28;20020;-72
2021/12/21 08:15:24;;;;;;;28.15;12.52;;;-4.70;99.90;;;;;;5074318;28;20046;-71
2021/12/21 08:17:49;;;;;;;26.70;13.07;;;-4.70;99.90;;;;;;5074392;28;20074;-71
2021/12/21 08:20:16;;;;;;;23.65;14.10;;;-4.70;99.90;;;;;;5074267;28;20021;-71
2021/12/21 08:22:41;;;;;;;27.60;13.63;;;-4.60;99.90;;;;;;5078990;28;20052;-72
2021/12/21 08:25:08;;;;;;;26.42;13.98;;;-4.40;99.90;;;;;;5094444;28;20372;-71
2021/12/21 08:27:33;;;;;;;31.27;16.23;;;-4.30;99.90;;;;;;5094286;28;20024;-72
2021/12/21 08:29:59;;;;;;;36.05;16.38;;;-4.20;99.90;;;;;;5082224;28;20035;-72
2021/12/21 08:32:24;;;;;;;47.03;16.90;;;-4.10;99.90;;;;;;5076629;28;20029;-72
2021/12/21 08:34:50;;;;;;;25.48;14.80;;;-4.10;99.90;;;;;;5083503;28;20032;-72
2021/12/21 08:37:16;;;;;;;38.92;17.02;;;-4.00;99.90;;;;;;5076006;28;20024;-72
2021/12/21 08:39:42;;;;;;;31.92;16.40;;;-3.90;99.90;;;;;;5083786;28;20071;-72
2021/12/21 08:42:12;;;;;;;44.00;16.70;;;-3.90;99.90;;;;;;5073915;28;20032;-72
2021/12/21 08:44:39;;;;;;;33.15;14.45;;;-3.90;99.90;;;;;;5081226;28;20032;-72
2021/12/21 08:47:05;;;;;;;39.15;15.35;;;-3.90;99.90;;;;;;5075687;28;20020;-72
2021/12/21 08:49:31;;;;;;;29.67;15.70;;;-3.90;99.90;;;;;;5089539;28;20039;-72
2021/12/21 08:51:58;;;;;;;37.28;15.20;;;-3.90;99.90;;;;;;5094201;28;20028;-72
2021/12/21 08:54:24;;;;;;;29.85;15.68;;;-3.90;99.90;;;;;;5091770;28;20046;-73
2021/12/21 08:56:50;;;;;;;40.47;16.75;;;-3.90;99.90;;;;;;5075304;28;20040;-73
2021/12/21 08:59:16;;;;;;;36.83;18.13;;;-3.70;99.90;;;;;;5072329;28;20024;-72
2021/12/21 09:01:43;;;;;;;37.05;17.25;;;-3.60;99.90;;;;;;5070156;28;20032;-72
2021/12/21 09:04:09;;;;;;;34.08;17.95;;;-3.40;99.90;;;;;;5075625;28;20093;-72
2021/12/21 09:06:35;;;;;;;31.33;16.50;;;-3.30;99.90;;;;;;5083737;28;20032;-72
2021/12/21 09:09:01;;;;;;;33.03;15.63;;;-3.30;99.90;;;;;;5081607;28;20387;-72
2021/12/21 09:11:26;;;;;;;25.65;14.65;;;-3.20;99.90;;;;;;5091691;28;20499;-72
2021/12/21 09:13:52;;;;;;;32.47;16.45;;;-3.20;99.90;;;;;;5093621;28;20136;-71
2021/12/21 09:16:18;;;;;;;31.30;17.10;;;-3.10;99.90;;;;;;5089159;28;20024;-72
2021/12/21 09:18:44;;;;;;;35.30;16.10;;;-3.10;99.90;;;;;;5093567;28;20476;-72
2021/12/21 09:21:10;;;;;;;32.50;16.63;;;-3.00;99.90;;;;;;5087204;28;20391;-73
2021/12/21 09:23:36;;;;;;;27.95;15.15;;;-2.90;99.90;;;;;;5073621;28;20480;-73
2021/12/21 09:26:02;;;;;;;27.70;15.52;;;-2.70;99.90;;;;;;5075832;28;20395;-72
2021/12/21 09:28:27;;;;;;;28.50;17.05;;;-2.60;99.90;;;;;;5075260;28;20020;-72
2021/12/21 09:30:53;;;;;;;31.63;15.43;;;-2.50;99.90;;;;;;5093500;28;20431;-72
2021/12/21 09:33:18;;;;;;;36.55;18.35;;;-2.40;99.90;;;;;;5093909;28;20028;-72
2021/12/21 09:35:45;;;;;;;45.08;17.75;;;-2.30;99.90;;;;;;5072445;28;20047;-72
2021/12/21 09:38:10;;;;;;;31.73;17.08;;;-2.20;99.90;;;;;;5055213;28;20116;-72
2021/12/21 09:40:40;;;;;;;32.35;17.00;;;-2.10;99.90;;;;;;5073465;28;20104;-72
2021/12/21 09:43:10;;;;;;;33.50;16.92;;;-2.10;99.90;;;;;;5073346;28;20065;-72
2021/12/21 09:45:37;;;;;;;34.75;17.48;;;-2.00;99.90;;;;;;5076001;28;20029;-72
2021/12/21 09:48:03;;;;;;;39.53;18.63;;;-1.90;99.90;;;;;;5081927;28;20115;-72
2021/12/21 09:50:29;;;;;;;40.40;18.55;;;-1.80;99.90;;;;;;5079772;28;20024;-72
2021/12/21 09:52:55;;;;;;;36.95;19.60;;;-1.70;99.90;;;;;;5081966;28;20032;-72
2021/12/21 09:55:21;;;;;;;30.30;19.15;;;-1.60;99.90;;;;;;5079526;28;20017;-72
2021/12/21 09:57:48;;;;;;;38.97;19.60;;;-1.50;99.90;;;;;;5081084;28;20529;-73
2021/12/21 10:00:20;;;;;;;43.15;19.77;;;-1.40;99.90;;;;;;5082068;28;20079;-73
2021/12/21 10:02:46;;;;;;;55.97;18.90;;;-1.20;99.90;;;;;;5099846;28;20031;-72
2021/12/21 10:05:19;;;;;;;38.95;19.35;;;-1.20;99.90;;;;;;5098882;28;20032;-73
2021/12/21 10:08:00;;;;;;;37.88;19.05;;;-1.10;99.90;;;;;;5093896;28;20731;-72
2021/12/21 10:10:26;;;;;;;49.85;19.25;;;-1.10;99.90;;;;;;5099947;28;20113;-72
2021/12/21 10:12:51;;;;;;;34.90;19.90;;;-1.00;99.90;;;;;;5099729;28;20012;-72
2021/12/21 10:15:24;;;;;;;35.25;18.73;;;-1.00;99.90;;;;;;5098116;28;20518;-73
2021/12/21 10:17:54;;;;;;;45.80;19.98;;;-0.90;99.90;;;;;;5097584;28;20102;-72
2021/12/21 10:20:41;;;;;;;33.25;18.45;;;-0.80;99.90;;;;;;5099977;28;20035;-72
2021/12/21 10:23:20;;;;;;;42.85;18.48;;;-0.80;99.90;;;;;;5096882;28;20043;-72
2021/12/21 10:25:49;;;;;;;31.60;18.05;;;-0.70;99.90;;;;;;5099879;28;20031;-72
2021/12/21 10:28:29;;;;;;;41.22;19.23;;;-0.60;99.90;;;;;;5084886;28;20028;-72
2021/12/21 10:30:56;;;;;;;41.90;17.40;;;-0.50;99.90;;;;;;5079301;28;20023;-73
2021/12/21 10:33:23;;;;;;;33.35;19.10;;;-0.50;99.90;;;;;;5079303;28;20029;-72
2021/12/21 10:35:51;;;;;;;36.17;18.48;;;-0.30;99.90;;;;;;5083438;28;20118;-73
2021/12/21 10:38:27;;;;;;;39.10;18.02;;;-0.30;99.90;;;;;;5099470;28;20039;-72
2021/12/21 10:40:53;;;;;;;38.67;18.63;;;-0.30;99.90;;;;;;5099755;28;20020;-73
2021/12/21 10:43:18;;;;;;;31.67;16.92;;;-0.30;99.90;;;;;;5099460;28;20028;-73
2021/12/21 10:45:44;;;;;;;41.47;17.55;;;-0.20;99.90;;;;;;5099387;28;20039;-72
2021/12/21 10:48:16;;;;;;;27.95;15.40;;;-0.10;99.90;;;;;;5077018;28;20028;-72
2021/12/21 10:50:44;;;;;;;34.28;16.63;;;0.00;99.90;;;;;;5079466;28;20061;-72
2021/12/21 10:53:23;;;;;;;33.80;16.83;;;0.00;99.90;;;;;;5081388;28;20133;-72
2021/12/21 10:56:04;;;;;;;33.08;17.13;;;0.00;99.90;;;;;;5079148;28;20127;-72
2021/12/21 10:58:30;;;;;;;42.67;17.67;;;0.20;99.90;;;;;;5082864;28;20028;-73
2021/12/21 11:01:00;;;;;;;35.30;15.02;;;0.30;99.90;;;;;;5096104;28;20106;-72
2021/12/21 11:03:32;;;;;;;39.60;17.95;;;0.30;99.90;;;;;;5075784;28;20028;-72
2021/12/21 11:06:19;;;;;;;31.83;15.50;;;0.30;99.90;;;;;;5075654;28;20492;-72
2021/12/21 11:08:49;;;;;;;42.80;15.90;;;0.40;99.90;;;;;;5087581;28;20108;-72
2021/12/21 11:11:43;;;;;;;23.38;12.82;;;0.40;99.90;;;;;;5095929;28;20028;-75
2021/12/21 11:14:13;;;;;;;21.52;11.93;;;0.40;99.90;;;;;;5074194;28;20396;-75
2021/12/21 11:16:50;;;;;;;30.88;13.00;;;0.50;99.90;;;;;;5075680;28;20029;-75
2021/12/21 11:19:19;;;;;;;37.13;13.32;;;0.60;99.90;;;;;;5057629;28;20484;-76
2021/12/21 11:21:46;;;;;;;31.17;11.23;;;0.60;99.90;;;;;;5075768;28;20025;-76
2021/12/21 11:24:15;;;;;;;27.08;10.75;;;0.70;99.90;;;;;;5075446;28;20029;-75
2021/12/21 11:26:43;;;;;;;28.27;10.07;;;0.80;99.90;;;;;;5074965;28;20021;-76
2021/12/21 11:29:12;;;;;;;25.63;9.45;;;0.90;99.90;;;;;;5057252;28;20491;-76
2021/12/21 11:31:43;;;;;;;19.48;8.77;;;1.00;99.90;;;;;;5075380;28;20021;-75
2021/12/21 11:34:13;;;;;;;20.25;10.25;;;1.00;99.90;;;;;;5075342;28;20109;-73
2021/12/21 11:39:32;;;;;;;24.92;10.60;;;1.20;99.90;;;;;;5075476;28;20043;-75
2021/12/21 11:42:03;;;;;;;18.45;9.82;;;1.20;99.90;;;;;;5075090;28;20024;-72
2021/12/21 11:44:34;;;;;;;31.75;15.68;;;1.20;99.90;;;;;;5077411;28;20518;-72
2021/12/21 11:47:01;;;;;;;56.35;32.75;;;1.40;99.90;;;;;;5074836;28;20159;-72
2021/12/21 11:49:39;;;;;;;82.10;44.30;;;1.40;99.90;;;;;;5077271;28;20031;-73
2021/12/21 11:52:13;;;;;;;51.00;31.92;;;1.60;99.90;;;;;;5075171;28;20021;-73
2021/12/21 11:54:57;;;;;;;46.65;23.77;;;1.80;99.90;;;;;;5075037;28;20043;-73
2021/12/21 11:57:44;;;;;;;31.63;18.13;;;2.00;99.90;;;;;;5076957;23;20048;-69
2021/12/21 12:00:13;;;;;;;30.70;15.50;;;2.20;99.90;;;;;;5056822;28;20484;-70
2021/12/21 12:02:40;;;;;;;42.40;23.15;;;2.20;99.90;;;;;;5074568;28;20111;-70
2021/12/21 12:05:19;;;;;;;38.33;24.05;;;2.40;99.90;;;;;;5074619;28;20051;-70
2021/12/21 12:07:45;;;;;;;38.38;27.08;;;2.70;99.90;;;;;;5074117;28;20119;-70
2021/12/21 12:10:13;;;;;;;36.25;18.58;;;2.80;99.90;;;;;;5074679;28;20031;-70
2021/12/21 12:12:40;;;;;;;22.42;13.50;;;2.80;99.90;;;;;;5074802;28;20032;-70
2021/12/21 12:15:08;;;;;;;24.80;12.25;;;2.70;99.90;;;;;;5073753;28;20050;-70
2021/12/21 12:17:49;;;;;;;18.48;9.35;;;2.80;99.90;;;;;;5074237;28;20328;-70
2021/12/21 12:20:16;;;;;;;21.67;10.35;;;2.90;99.90;;;;;;5073625;28;20039;-70
2021/12/21 12:22:45;;;;;;;17.75;8.90;;;2.90;99.90;;;;;;5074575;28;20040;-70
2021/12/21 12:25:20;;;;;;;17.77;7.22;;;2.90;99.90;;;;;;5074148;28;20020;-69
2021/12/21 12:27:48;;;;;;;17.63;8.40;;;2.80;99.90;;;;;;5074072;28;20060;-69
2021/12/21 12:30:26;;;;;;;14.40;6.25;;;2.80;99.90;;;;;;5074096;28;20031;-69
2021/12/21 12:33:01;;;;;;;15.05;6.80;;;2.70;99.90;;;;;;5074347;28;20027;-69
2021/12/21 12:35:33;;;;;;;14.57;5.85;;;2.70;99.90;;;;;;5072844;28;20020;-69
2021/12/21 12:38:02;;;;;;;14.73;5.72;;;2.60;99.90;;;;;;5074056;28;20080;-69
2021/12/21 12:40:35;;;;;;;15.95;6.03;;;2.70;99.90;;;;;;5073243;28;20058;-69
2021/12/21 12:43:05;;;;;;;18.77;6.68;;;2.70;99.90;;;;;;5074127;28;20025;-69
2021/12/21 12:45:39;;;;;;;17.30;7.03;;;2.70;99.90;;;;;;5074180;28;20408;-70
2021/12/21 12:48:20;;;;;;;11.27;6.75;;;2.70;99.90;;;;;;5073280;28;20028;-70
2021/12/21 12:50:47;;;;;;;38.17;9.70;;;2.70;99.90;;;;;;5059860;28;20025;-69
2021/12/21 12:53:13;;;;;;;15.13;5.53;;;2.70;99.90;;;;;;5045440;28;20020;-70
2021/12/21 12:55:48;;;;;;;14.00;5.70;;;2.70;99.90;;;;;;5074287;28;20020;-69
2021/12/21 12:58:19;;;;;;;16.10;5.10;;;2.70;99.90;;;;;;5073513;28;20539;-69
2021/12/21 13:00:52;;;;;;;15.63;3.97;;;2.70;99.90;;;;;;5055774;28;20028;-70
2021/12/21 13:03:17;;;;;;;17.27;3.95;;;2.70;99.90;;;;;;5073565;28;20036;-70
2021/12/21 13:05:53;;;;;;;14.35;3.90;;;2.60;99.90;;;;;;5073792;28;20516;-69
2021/12/21 13:08:22;;;;;;;18.38;4.28;;;2.60;99.90;;;;;;5072792;28;20020;-70
2021/12/21 13:10:52;;;;;;;11.70;3.47;;;2.60;99.90;;;;;;5073309;28;20503;-69
2021/12/21 13:13:19;;;;;;;11.43;3.60;;;2.50;99.90;;;;;;5073414;28;20110;-70
2021/12/21 13:15:50;;;;;;;11.68;4.32;;;2.60;99.90;;;;;;5072868;28;20031;-70
2021/12/21 13:18:19;;;;;;;11.02;4.20;;;2.60;99.90;;;;;;5072202;28;20032;-70
2021/12/21 13:20:47;;;;;;;17.10;3.85;;;2.50;99.90;;;;;;5076557;28;20515;-70
2021/12/21 13:23:14;;;;;;;13.52;4.07;;;2.50;99.90;;;;;;5073332;28;20032;-70
2021/12/21 13:26:11;;;;;;;15.45;3.70;;;2.40;99.90;;;;;;5072023;28;20033;-70
2021/12/21 13:28:46;;;;;;;13.38;4.25;;;2.40;99.90;;;;;;5072859;28;20123;-70
2021/12/21 13:31:16;;;;;;;12.50;3.92;;;2.40;99.90;;;;;;5073291;28;20050;-69
2021/12/21 13:33:42;;;;;;;12.18;3.75;;;2.30;99.90;;;;;;5073194;28;20016;-69
2021/12/21 13:36:09;;;;;;;13.57;4.85;;;2.30;99.90;;;;;;5073124;28;20021;-69
2021/12/21 13:38:37;;;;;;;14.93;4.57;;;2.30;99.90;;;;;;5073135;28;20074;-70
2021/12/21 13:41:13;;;;;;;31.13;4.60;;;2.30;99.90;;;;;;5073118;28;20029;-69
2021/12/21 13:43:51;;;;;;;12.73;4.75;;;2.30;99.90;;;;;;5073081;28;20035;-69
2021/12/21 13:46:17;;;;;;;22.67;4.07;;;2.20;99.90;;;;;;5073003;28;20029;-69
2021/12/21 13:48:54;;;;;;;21.15;5.18;;;2.30;99.90;;;;;;5073496;28;20090;-69
2021/12/21 13:51:21;;;;;;;16.65;4.30;;;2.30;99.90;;;;;;5073170;28;20112;-69